首页
METAR-TAF:

METAR-TAF

机场 :

Watauga County Hospital Heliport

Boone, 北卡罗来纳州, 美国

纬度: 36-12N, 经度: 081-39W, 海拔: 959米

当前天气观测

该预报发布于30分钟前的10:15 UTC
风速14节,风向北转西北,有时为21节阵风,在西北之间变化
温度 0°C
湿度 64%
气压 1019 hPa
能見度: 16.1公里
散云层高于2500英尺
散云层高于3000英尺

METAR: KTNB 211015Z AUTO 34014G21KT 310V010 10SM SCT025 SCT030 00/M06 A3010 RMK AO2 T00001056

时间: 06:45 (10:45 UTC)


TAF: 丢失

超过4000个机场的气象观测和天气预报(METAR&TAF报告)。

可查询的气象台以黄色和红色小点在地图上表示。

将鼠标移到小点上方,可查看气象台名称。

然后点击查看天气观测和预报。

如需切换地图:点击带黑十字的绿色按钮放大地图;点击带横线的绿色按钮缩小地图;或者点击绿色箭头查看邻近地区的地图。


METAR-TAF: